createdAt,value
2018-09-22T00:00:24.885Z,8.59
2018-09-22T00:03:29.298Z,8.54
2018-09-22T00:06:33.694Z,8.55
2018-09-22T00:09:38.436Z,8.45
2018-09-22T00:12:42.895Z,8.37
2018-09-22T00:15:47.362Z,8.33
2018-09-22T00:18:51.782Z,8.45
2018-09-22T00:21:56.356Z,8.36
2018-09-22T00:25:00.754Z,8.36
2018-09-22T00:28:05.217Z,8.35
2018-09-22T00:31:09.679Z,8.21
2018-09-22T00:34:14.117Z,8.07
2018-09-22T00:37:18.637Z,8.05
2018-09-22T00:40:23.240Z,7.97
2018-09-22T00:43:27.651Z,7.82
2018-09-22T00:46:32.113Z,7.71
2018-09-22T00:49:36.803Z,7.68
2018-09-22T00:52:41.196Z,7.67
2018-09-22T00:55:45.669Z,7.71
2018-09-22T00:58:50.243Z,7.89
2018-09-22T01:01:54.687Z,7.86
2018-09-22T01:04:59.152Z,7.76
2018-09-22T01:08:03.605Z,7.75
2018-09-22T01:11:08.239Z,7.59
2018-09-22T01:14:12.727Z,7.50
2018-09-22T01:17:17.203Z,7.39
2018-09-22T01:20:21.787Z,7.46
2018-09-22T01:23:26.381Z,7.33
2018-09-22T01:26:30.829Z,7.36
2018-09-22T01:29:35.317Z,7.29
2018-09-22T01:32:39.763Z,7.32
2018-09-22T01:35:44.253Z,7.38
2018-09-22T01:38:48.703Z,7.41
2018-09-22T01:41:53.179Z,7.51
2018-09-22T01:44:57.617Z,7.50
2018-09-22T01:48:02.095Z,7.40
2018-09-22T01:51:06.552Z,7.36
2018-09-22T01:54:10.954Z,7.22
2018-09-22T01:57:15.369Z,7.30
2018-09-22T02:00:19.863Z,7.30
2018-09-22T02:03:24.384Z,7.31
2018-09-22T02:06:28.928Z,7.23
2018-09-22T02:09:33.346Z,7.24
2018-09-22T02:12:37.916Z,7.16
2018-09-22T02:15:42.462Z,7.30
2018-09-22T02:18:46.898Z,7.32
2018-09-22T02:21:51.358Z,7.32
2018-09-22T02:24:55.980Z,7.27
2018-09-22T02:28:00.467Z,7.06
2018-09-22T02:31:04.922Z,7.06
2018-09-22T02:34:09.438Z,7.10
2018-09-22T02:37:13.879Z,7.01
2018-09-22T02:40:18.335Z,7.11
2018-09-22T02:43:22.866Z,7.21
2018-09-22T02:46:27.343Z,7.18
2018-09-22T02:49:31.793Z,7.16
2018-09-22T02:52:36.279Z,7.19
2018-09-22T02:55:40.717Z,7.09
2018-09-22T02:58:45.211Z,7.09
2018-09-22T03:01:49.657Z,7.13
2018-09-22T03:04:54.075Z,7.15
2018-09-22T03:07:58.493Z,7.24
2018-09-22T03:11:02.949Z,7.28
2018-09-22T03:14:07.667Z,7.22
2018-09-22T03:17:12.114Z,7.18
2018-09-22T03:20:16.583Z,7.17
2018-09-22T03:23:21.437Z,7.04
2018-09-22T03:26:25.935Z,7.05
2018-09-22T03:29:30.405Z,7.14
2018-09-22T03:32:34.825Z,7.11
2018-09-22T03:35:39.205Z,7.07
2018-09-22T03:38:43.627Z,7.05
2018-09-22T03:41:48.101Z,6.93
2018-09-22T03:44:52.582Z,6.97
2018-09-22T03:47:57.035Z,6.92
2018-09-22T03:51:01.488Z,6.81
2018-09-22T03:54:06.049Z,6.63
2018-09-22T03:57:10.430Z,6.71
2018-09-22T04:00:14.869Z,6.81
2018-09-22T04:03:19.440Z,6.83
2018-09-22T04:06:23.872Z,6.94
2018-09-22T04:09:28.321Z,6.95
2018-09-22T04:12:32.723Z,6.94
2018-09-22T04:15:37.188Z,7.04
2018-09-22T04:18:41.644Z,7.04
2018-09-22T04:21:46.162Z,7.21
2018-09-22T04:24:50.643Z,7.09
2018-09-22T04:27:55.024Z,7.13
2018-09-22T04:30:59.575Z,7.17
2018-09-22T04:34:03.995Z,7.15
2018-09-22T04:37:08.470Z,7.09
2018-09-22T04:40:12.912Z,6.98
2018-09-22T04:43:17.361Z,7.08
2018-09-22T04:46:21.812Z,6.90
2018-09-22T04:49:26.364Z,6.87
2018-09-22T04:52:30.815Z,6.92
2018-09-22T04:55:35.455Z,6.87
2018-09-22T04:58:40.020Z,6.84
2018-09-22T05:01:44.439Z,7.10
2018-09-22T05:04:49.070Z,6.95
2018-09-22T05:07:53.705Z,7.04
2018-09-22T05:10:58.204Z,7.27
2018-09-22T05:14:02.702Z,7.22
2018-09-22T05:17:07.320Z,7.18
2018-09-22T05:20:11.707Z,7.24
2018-09-22T05:23:16.173Z,7.28
2018-09-22T05:26:20.611Z,7.31
2018-09-22T05:29:25.026Z,7.50
2018-09-22T05:32:29.442Z,7.54
2018-09-22T05:35:33.931Z,7.70
2018-09-22T05:38:38.534Z,7.66
2018-09-22T05:41:43.010Z,7.78
2018-09-22T05:44:47.425Z,7.89
2018-09-22T05:47:51.868Z,7.90
2018-09-22T05:50:56.318Z,8.01
2018-09-22T05:54:00.738Z,8.07
2018-09-22T05:57:05.237Z,7.96
2018-09-22T06:00:09.809Z,8.04
2018-09-22T06:03:14.307Z,8.12
2018-09-22T06:06:18.820Z,8.21
2018-09-22T06:09:23.261Z,8.35
2018-09-22T06:12:27.674Z,8.40
2018-09-22T06:15:32.108Z,8.54
2018-09-22T06:18:36.664Z,8.73
2018-09-22T06:21:41.129Z,8.68
2018-09-22T06:24:45.664Z,8.84
2018-09-22T06:27:50.233Z,8.99
2018-09-22T06:30:54.722Z,9.20
2018-09-22T06:33:59.269Z,9.37
2018-09-22T06:37:03.741Z,9.28
2018-09-22T06:40:08.182Z,9.45
2018-09-22T06:43:12.678Z,9.49
2018-09-22T06:46:17.197Z,9.72
2018-09-22T06:49:21.591Z,9.78
2018-09-22T06:52:26.182Z,10.07
2018-09-22T06:55:30.643Z,10.11
2018-09-22T06:58:35.256Z,10.34
2018-09-22T07:01:39.708Z,9.92
2018-09-22T07:04:45.039Z,10.01
2018-09-22T07:07:49.560Z,10.22
2018-09-22T07:10:54.169Z,10.39
2018-09-22T07:13:58.640Z,10.51
2018-09-22T07:17:03.757Z,10.50
2018-09-22T07:20:08.230Z,10.59
2018-09-22T07:23:14.175Z,10.91
2018-09-22T07:26:18.627Z,11.12
2018-09-22T07:29:23.406Z,11.28
2018-09-22T07:32:27.823Z,11.52
2018-09-22T07:35:32.323Z,11.62
2018-09-22T07:38:36.884Z,11.84
2018-09-22T07:41:41.449Z,11.88
2018-09-22T07:44:46.141Z,12.46
2018-09-22T07:47:50.578Z,12.70
2018-09-22T07:50:55.077Z,12.74
2018-09-22T07:53:59.561Z,12.93
2018-09-22T07:57:04.034Z,13.41
2018-09-22T08:00:08.638Z,13.51
2018-09-22T08:03:13.203Z,13.57
2018-09-22T08:06:17.772Z,13.86
2018-09-22T08:09:22.304Z,13.85
2018-09-22T08:12:26.792Z,13.71
2018-09-22T08:15:31.331Z,14.13
2018-09-22T08:18:35.967Z,14.27
2018-09-22T08:21:40.562Z,14.39
2018-09-22T08:24:45.114Z,14.41
2018-09-22T08:27:49.548Z,14.44
2018-09-22T08:30:54.297Z,14.73
2018-09-22T08:33:58.832Z,15.13
2018-09-22T08:37:03.446Z,15.29
2018-09-22T08:40:07.839Z,15.30
2018-09-22T08:43:12.289Z,15.42
2018-09-22T08:46:16.711Z,15.43
2018-09-22T08:49:21.144Z,15.35
2018-09-22T08:52:25.555Z,15.44
2018-09-22T08:55:31.095Z,15.73
2018-09-22T08:58:35.536Z,16.14
2018-09-22T09:01:39.996Z,15.68
2018-09-22T09:04:44.475Z,15.97
2018-09-22T09:07:48.952Z,16.20
2018-09-22T09:10:53.409Z,16.41
2018-09-22T09:13:57.929Z,16.61
2018-09-22T09:17:02.490Z,17.15
2018-09-22T09:20:06.994Z,16.95
2018-09-22T09:23:11.459Z,16.81
2018-09-22T09:26:15.969Z,16.74
2018-09-22T09:29:20.446Z,16.68
2018-09-22T09:32:24.890Z,16.74
2018-09-22T09:35:29.457Z,16.93
2018-09-22T09:38:34.979Z,17.21
2018-09-22T09:41:39.451Z,17.28
2018-09-22T09:44:43.892Z,17.35
2018-09-22T09:47:48.381Z,17.78
2018-09-22T09:50:52.889Z,17.45
2018-09-22T09:53:57.338Z,17.68
2018-09-22T09:57:01.807Z,17.85
2018-09-22T10:00:06.768Z,18.26
2018-09-22T10:03:11.236Z,18.54
2018-09-22T10:06:15.816Z,18.48
2018-09-22T10:09:20.254Z,18.77
2018-09-22T10:12:24.711Z,18.24
2018-09-22T10:15:29.157Z,18.38
2018-09-22T10:18:33.704Z,18.37
2018-09-22T10:21:38.154Z,18.69
2018-09-22T10:24:42.607Z,18.90
2018-09-22T10:27:47.079Z,19.03
2018-09-22T10:30:51.521Z,18.67
2018-09-22T10:33:55.999Z,18.22
2018-09-22T10:37:00.429Z,18.74
2018-09-22T10:40:04.945Z,18.61
2018-09-22T10:43:09.593Z,18.73
2018-09-22T10:46:14.159Z,18.92
2018-09-22T10:49:18.702Z,18.18
2018-09-22T10:52:23.202Z,18.25
2018-09-22T10:55:27.651Z,18.32
2018-09-22T10:58:32.114Z,17.99
2018-09-22T11:01:36.570Z,18.15
2018-09-22T11:04:41.090Z,18.26
2018-09-22T11:07:45.550Z,18.96
2018-09-22T11:10:49.998Z,18.61
2018-09-22T11:13:54.540Z,18.73
2018-09-22T11:16:59.029Z,18.10
2018-09-22T11:20:03.525Z,18.60
2018-09-22T11:23:07.959Z,19.01
2018-09-22T11:26:12.419Z,18.95
2018-09-22T11:29:16.894Z,19.26
2018-09-22T11:32:21.356Z,19.15
2018-09-22T11:35:25.813Z,19.08
2018-09-22T11:38:30.285Z,19.38
2018-09-22T11:41:34.796Z,19.25
2018-09-22T11:44:39.359Z,18.62
2018-09-22T11:47:43.963Z,18.59
2018-09-22T11:50:48.541Z,18.75
2018-09-22T11:53:53.201Z,18.36
2018-09-22T11:56:57.801Z,18.78
2018-09-22T12:00:02.365Z,18.71
2018-09-22T12:03:06.843Z,19.23
2018-09-22T12:06:11.473Z,18.99
2018-09-22T12:09:16.078Z,19.35
2018-09-22T12:12:20.827Z,19.35
2018-09-22T12:15:25.400Z,19.36
2018-09-22T12:18:29.959Z,19.44
2018-09-22T12:21:34.609Z,19.35
2018-09-22T12:24:39.338Z,19.33
2018-09-22T12:27:44.064Z,19.45
2018-09-22T12:30:48.575Z,19.47
2018-09-22T12:33:53.433Z,20.08
2018-09-22T12:36:58.049Z,20.32
2018-09-22T12:40:02.565Z,20.17
2018-09-22T12:43:07.542Z,19.70
2018-09-22T12:46:12.213Z,19.59
2018-09-22T12:49:16.778Z,19.80
2018-09-22T12:52:21.304Z,19.48
2018-09-22T12:55:25.851Z,19.89
2018-09-22T12:58:30.448Z,20.10
2018-09-22T13:01:34.991Z,19.95
2018-09-22T13:04:39.611Z,19.82
2018-09-22T13:07:44.134Z,19.44
2018-09-22T13:10:48.673Z,19.79
2018-09-22T13:13:53.344Z,19.53
2018-09-22T13:16:57.800Z,19.74
2018-09-22T13:20:02.395Z,19.74
2018-09-22T13:23:07.258Z,19.12
2018-09-22T13:26:11.690Z,19.34
2018-09-22T13:29:16.147Z,19.36
2018-09-22T13:32:20.711Z,19.78
2018-09-22T13:35:25.209Z,19.38
2018-09-22T13:38:29.966Z,18.97
2018-09-22T13:41:34.477Z,18.75
2018-09-22T13:44:38.973Z,18.96
2018-09-22T13:47:43.399Z,18.90
2018-09-22T13:50:47.923Z,19.13
2018-09-22T13:53:52.342Z,18.96
2018-09-22T13:56:56.804Z,18.92
2018-09-22T14:00:01.274Z,19.20
2018-09-22T14:03:05.920Z,19.20
2018-09-22T14:06:10.466Z,19.42
2018-09-22T14:09:14.916Z,19.05
2018-09-22T14:12:19.587Z,19.39
2018-09-22T14:15:24.004Z,19.57
2018-09-22T14:18:28.512Z,19.25
2018-09-22T14:21:33.277Z,19.16
2018-09-22T14:24:37.810Z,18.88
2018-09-22T14:27:42.231Z,19.05
2018-09-22T14:30:46.966Z,19.39
2018-09-22T14:33:51.479Z,18.98
2018-09-22T14:36:56.067Z,19.08
2018-09-22T14:40:00.507Z,19.33
2018-09-22T14:43:04.928Z,19.31
2018-09-22T14:46:09.383Z,19.17
2018-09-22T14:49:13.844Z,18.59
2018-09-22T14:52:18.325Z,18.47
2018-09-22T14:55:22.827Z,18.27
2018-09-22T14:58:28.243Z,18.46
2018-09-22T15:01:32.715Z,18.14
2018-09-22T15:04:37.221Z,18.15
2018-09-22T15:07:41.887Z,18.10
2018-09-22T15:10:46.385Z,18.13
2018-09-22T15:13:50.850Z,17.98
2018-09-22T15:16:55.364Z,18.07
2018-09-22T15:19:59.790Z,18.21
2018-09-22T15:23:04.287Z,17.93
2018-09-22T15:26:08.800Z,18.08
2018-09-22T15:29:13.322Z,18.05
2018-09-22T15:32:17.791Z,18.11
2018-09-22T15:35:22.251Z,18.21
2018-09-22T15:38:26.721Z,17.90
2018-09-22T15:41:31.398Z,17.80
2018-09-22T15:44:35.921Z,17.49
2018-09-22T15:47:40.384Z,17.53
2018-09-22T15:50:45.830Z,17.43
2018-09-22T15:53:50.341Z,17.31
2018-09-22T15:56:54.761Z,17.30
2018-09-22T15:59:59.211Z,17.24
2018-09-22T16:03:03.733Z,17.35
2018-09-22T16:06:08.211Z,17.29
2018-09-22T16:09:12.647Z,17.26
2018-09-22T16:12:18.291Z,17.28
2018-09-22T16:15:22.752Z,17.21
2018-09-22T16:18:27.385Z,17.06
2018-09-22T16:21:32.181Z,16.89
2018-09-22T16:24:36.634Z,16.74
2018-09-22T16:27:41.169Z,16.74
2018-09-22T16:30:45.650Z,16.49
2018-09-22T16:33:50.387Z,16.20
2018-09-22T16:36:54.808Z,16.15
2018-09-22T16:39:59.384Z,15.98
2018-09-22T16:43:03.982Z,15.87
2018-09-22T16:46:08.679Z,15.71
2018-09-22T16:49:13.207Z,15.62
2018-09-22T16:52:17.661Z,15.73
2018-09-22T16:55:22.140Z,15.71
2018-09-22T16:58:26.682Z,15.68
2018-09-22T17:01:31.148Z,15.68
2018-09-22T17:04:35.608Z,15.54
2018-09-22T17:07:40.063Z,15.48
2018-09-22T17:10:44.508Z,15.48
2018-09-22T17:13:48.986Z,15.32
2018-09-22T17:16:53.575Z,15.19
2018-09-22T17:19:58.036Z,15.20
2018-09-22T17:23:02.476Z,15.07
2018-09-22T17:26:06.997Z,15.03
2018-09-22T17:29:11.531Z,15.03
2018-09-22T17:32:16.143Z,14.77
2018-09-22T17:35:20.601Z,14.62
2018-09-22T17:38:25.119Z,14.50
2018-09-22T17:41:29.544Z,14.53
2018-09-22T17:44:34.016Z,14.44
2018-09-22T17:47:38.472Z,14.47
2018-09-22T17:50:42.910Z,14.34
2018-09-22T17:53:47.471Z,14.10
2018-09-22T17:56:51.979Z,13.94
2018-09-22T17:59:56.487Z,13.99
2018-09-22T18:03:01.029Z,13.90
2018-09-22T18:06:05.774Z,13.73
2018-09-22T18:09:10.532Z,13.69
2018-09-22T18:12:15.087Z,13.65
2018-09-22T18:15:19.652Z,13.48
2018-09-22T18:18:24.172Z,13.28
2018-09-22T18:21:29.225Z,13.20
2018-09-22T18:24:33.812Z,13.19
2018-09-22T18:27:38.371Z,13.21
2018-09-22T18:30:42.877Z,12.95
2018-09-22T18:33:47.558Z,12.77
2018-09-22T18:36:52.028Z,12.66
2018-09-22T18:39:56.505Z,12.63
2018-09-22T18:43:00.984Z,12.69
2018-09-22T18:46:05.437Z,12.56
2018-09-22T18:49:09.955Z,12.47
2018-09-22T18:52:14.431Z,12.29
2018-09-22T18:55:18.905Z,12.44
2018-09-22T18:58:23.369Z,12.34
2018-09-22T19:01:28.069Z,12.24
2018-09-22T19:04:32.590Z,12.18
2018-09-22T19:07:37.157Z,12.21
2018-09-22T19:10:41.682Z,12.43
2018-09-22T19:14:54.366Z,12.53
2018-09-22T19:18:04.469Z,12.55
2018-09-22T19:22:13.684Z,12.41
2018-09-22T19:25:20.389Z,12.39
2018-09-22T19:28:30.252Z,12.36
2018-09-22T19:31:45.484Z,12.36
2018-09-22T19:34:53.415Z,12.33
2018-09-22T19:38:02.747Z,12.32
2018-09-22T19:41:12.388Z,12.41
2018-09-22T19:44:21.445Z,12.40
2018-09-22T19:48:00.138Z,12.31
2018-09-22T19:51:08.335Z,12.39
2018-09-22T19:54:12.963Z,12.24
2018-09-22T19:57:17.506Z,12.25
2018-09-22T20:00:22.043Z,12.26
2018-09-22T20:03:26.559Z,12.28
2018-09-22T20:06:31.098Z,12.28
2018-09-22T20:09:36.035Z,12.31
2018-09-22T20:12:40.557Z,12.24
2018-09-22T20:15:45.122Z,12.26
2018-09-22T20:18:49.578Z,12.35
2018-09-22T20:21:54.408Z,12.30
2018-09-22T20:24:59.915Z,12.22
2018-09-22T20:28:04.493Z,12.16
2018-09-22T20:31:09.575Z,12.18
2018-09-22T20:34:15.213Z,12.24
2018-09-22T20:37:19.911Z,12.19
2018-09-22T20:40:24.582Z,12.10
2018-09-22T20:43:29.336Z,12.10
2018-09-22T20:46:34.068Z,12.17
2018-09-22T20:49:38.518Z,12.08
2018-09-22T20:52:43.113Z,12.16
2018-09-22T20:55:47.678Z,12.11
2018-09-22T20:58:52.305Z,12.02
2018-09-22T21:01:56.834Z,12.08
2018-09-22T21:05:01.435Z,12.10
2018-09-22T21:08:05.978Z,11.96
2018-09-22T21:11:10.510Z,11.85
2018-09-22T21:14:15.018Z,11.92
2018-09-22T21:17:20.189Z,11.81
2018-09-22T21:20:24.669Z,11.77
2018-09-22T21:23:29.120Z,11.81
2018-09-22T21:26:33.666Z,11.76
2018-09-22T21:29:38.352Z,11.76
2018-09-22T21:32:42.814Z,11.79
2018-09-22T21:35:47.315Z,11.79
2018-09-22T21:38:51.766Z,11.74
2018-09-22T21:41:56.249Z,11.79
2018-09-22T21:45:00.688Z,11.85
2018-09-22T21:48:05.175Z,11.91
2018-09-22T21:51:09.748Z,11.79
2018-09-22T21:54:14.225Z,11.93
2018-09-22T21:57:18.705Z,11.87
2018-09-22T22:00:23.436Z,11.80
2018-09-22T22:03:27.919Z,11.92
2018-09-22T22:06:32.470Z,11.74
2018-09-22T22:09:37.026Z,11.85
2018-09-22T22:12:41.572Z,11.80
2018-09-22T22:15:46.161Z,11.83
2018-09-22T22:18:50.651Z,11.78
2018-09-22T22:21:55.170Z,11.78
2018-09-22T22:24:59.860Z,11.74
2018-09-22T22:28:04.563Z,11.72
2018-09-22T22:31:09.133Z,11.64
2018-09-22T22:34:13.688Z,11.63
2018-09-22T22:37:18.178Z,11.74
2018-09-22T22:40:22.741Z,11.63
2018-09-22T22:43:27.493Z,11.65
2018-09-22T22:46:32.115Z,11.67
2018-09-22T22:49:36.652Z,11.48
2018-09-22T22:52:41.170Z,11.50
2018-09-22T22:55:45.611Z,11.55
2018-09-22T22:58:50.126Z,11.41
2018-09-22T23:01:54.773Z,11.39
2018-09-22T23:04:59.235Z,11.55
2018-09-22T23:08:04.109Z,11.51
2018-09-22T23:11:08.691Z,11.58
2018-09-22T23:14:13.168Z,11.70
2018-09-22T23:17:17.684Z,11.64
2018-09-22T23:20:22.252Z,11.66
2018-09-22T23:23:26.898Z,11.55
2018-09-22T23:26:31.425Z,11.50
2018-09-22T23:29:35.917Z,11.49
2018-09-22T23:32:40.459Z,11.55
2018-09-22T23:35:44.982Z,11.52
2018-09-22T23:38:49.446Z,11.55
2018-09-22T23:41:53.964Z,11.63
2018-09-22T23:44:58.544Z,11.57
2018-09-22T23:48:03.015Z,11.58
2018-09-22T23:51:07.837Z,11.49
2018-09-22T23:54:12.461Z,11.41
2018-09-22T23:57:16.928Z,11.41
